createdAt,value
2022-09-12T00:02:17.834Z,4.97
2022-09-12T00:04:44.475Z,3.80
2022-09-12T00:07:11.131Z,3.45
2022-09-12T00:09:38.084Z,3.17
2022-09-12T00:12:05.344Z,3.17
2022-09-12T00:14:32.073Z,2.90
2022-09-12T00:16:59.601Z,5.72
2022-09-12T00:19:28.035Z,4.35
2022-09-12T00:21:54.874Z,4.63
2022-09-12T00:24:22.415Z,4.03
2022-09-12T00:26:49.447Z,9.77
2022-09-12T00:29:18.350Z,2.90
2022-09-12T00:31:45.571Z,4.00
2022-09-12T00:34:12.600Z,3.40
2022-09-12T00:36:40.120Z,4.15
2022-09-12T00:39:08.607Z,4.43
2022-09-12T00:41:39.351Z,4.47
2022-09-12T00:44:12.168Z,6.75
2022-09-12T00:46:46.979Z,4.10
2022-09-12T00:49:19.624Z,3.70
2022-09-12T00:51:52.640Z,7.40
2022-09-12T00:54:25.532Z,3.33
2022-09-12T00:56:55.882Z,3.70
2022-09-12T00:59:29.504Z,3.30
2022-09-12T01:01:56.602Z,4.38
2022-09-12T01:04:25.817Z,3.78
2022-09-12T01:06:53.629Z,5.32
2022-09-12T01:09:22.878Z,6.70
2022-09-12T01:11:51.742Z,4.40
2022-09-12T01:14:19.836Z,4.70
2022-09-12T01:16:48.732Z,4.50
2022-09-12T01:19:39.661Z,7.05
2022-09-12T01:22:09.373Z,5.18
2022-09-12T01:25:00.365Z,4.97
2022-09-12T01:27:51.176Z,5.70
2022-09-12T01:30:39.443Z,6.15
2022-09-12T01:33:09.029Z,3.92
2022-09-12T01:35:56.959Z,8.30
2022-09-12T01:38:59.445Z,5.10
2022-09-12T01:42:01.247Z,4.45
2022-09-12T01:44:52.874Z,5.15
2022-09-12T01:47:27.666Z,7.38
2022-09-12T01:50:06.931Z,5.10
2022-09-12T01:52:42.915Z,6.15
2022-09-12T01:55:33.811Z,5.63
2022-09-12T01:58:11.912Z,4.97
2022-09-12T02:00:45.970Z,5.10
2022-09-12T02:03:19.292Z,5.50
2022-09-12T02:05:56.239Z,6.22
2022-09-12T02:08:27.856Z,7.03
2022-09-12T02:11:11.279Z,6.53
2022-09-12T02:13:59.143Z,6.10
2022-09-12T02:16:32.086Z,6.03
2022-09-12T02:19:07.584Z,8.27
2022-09-12T02:21:37.332Z,7.55
2022-09-12T02:24:08.297Z,7.10
2022-09-12T02:26:40.021Z,8.48
2022-09-12T02:29:06.709Z,9.48
2022-09-12T02:31:47.332Z,6.38
2022-09-12T02:34:39.892Z,6.63
2022-09-12T02:37:29.584Z,6.82
2022-09-12T02:39:57.862Z,5.78
2022-09-12T02:42:24.975Z,8.32
2022-09-12T02:44:54.493Z,7.78
2022-09-12T02:47:34.317Z,8.70
2022-09-12T02:52:29.281Z,6.30
2022-09-12T02:54:58.199Z,10.55
2022-09-12T02:57:25.224Z,7.65
2022-09-12T02:59:55.737Z,15.38
2022-09-12T03:02:34.516Z,8.23
2022-09-12T03:05:19.004Z,7.63
2022-09-12T03:07:51.648Z,7.93
2022-09-12T03:10:34.723Z,7.05
2022-09-12T03:13:18.679Z,7.82
2022-09-12T03:15:48.407Z,8.60
2022-09-12T03:18:29.428Z,6.82
2022-09-12T03:21:12.177Z,8.10
2022-09-12T03:23:47.497Z,9.75
2022-09-12T03:26:20.756Z,8.35
2022-09-12T03:28:48.877Z,10.52
2022-09-12T03:31:18.547Z,10.13
2022-09-12T03:33:45.649Z,12.85
2022-09-12T03:36:26.767Z,9.10
2022-09-12T03:38:53.739Z,9.52
2022-09-12T03:41:20.467Z,8.43
2022-09-12T03:43:47.675Z,9.52
2022-09-12T03:46:14.648Z,7.72
2022-09-12T03:48:41.821Z,9.05
2022-09-12T03:51:10.865Z,9.00
2022-09-12T03:53:37.500Z,9.10
2022-09-12T03:56:09.959Z,7.93
2022-09-12T03:58:37.379Z,8.65
2022-09-12T04:01:15.977Z,14.35
2022-09-12T04:03:44.319Z,9.25
2022-09-12T04:06:13.164Z,9.52
2022-09-12T04:08:40.585Z,9.77
2022-09-12T04:11:13.112Z,12.63
2022-09-12T04:13:41.386Z,11.35
2022-09-12T04:16:08.912Z,10.07
2022-09-12T04:18:36.579Z,9.43
2022-09-12T04:21:12.035Z,9.10
2022-09-12T04:23:38.819Z,9.20
2022-09-12T04:26:06.579Z,12.20
2022-09-12T04:28:35.059Z,9.25
2022-09-12T04:31:07.740Z,11.50
2022-09-12T04:33:35.867Z,11.05
2022-09-12T04:36:07.420Z,9.93
2022-09-12T04:38:36.032Z,11.75
2022-09-12T04:41:16.424Z,10.52
2022-09-12T04:43:44.060Z,10.98
2022-09-12T04:46:12.208Z,12.07
2022-09-12T04:48:39.405Z,15.38
2022-09-12T04:51:09.065Z,10.27
2022-09-12T04:53:37.016Z,12.88
2022-09-12T04:56:06.959Z,11.45
2022-09-12T05:01:21.496Z,14.13
2022-09-12T05:03:49.685Z,16.42
2022-09-12T05:06:22.739Z,12.60
2022-09-12T05:08:50.018Z,12.85
2022-09-12T05:11:24.049Z,11.30
2022-09-12T05:13:52.055Z,13.27
2022-09-12T05:16:19.988Z,10.63
2022-09-12T05:18:47.328Z,11.35
2022-09-12T05:21:18.232Z,11.45
2022-09-12T05:23:45.395Z,13.20
2022-09-12T05:26:16.317Z,11.63
2022-09-12T05:28:43.834Z,11.55
2022-09-12T05:31:14.823Z,13.23
2022-09-12T05:33:43.623Z,12.15
2022-09-12T05:36:13.269Z,13.13
2022-09-12T05:38:40.510Z,11.38
2022-09-12T05:41:17.512Z,10.95
2022-09-12T05:43:46.589Z,11.40
2022-09-12T05:46:15.780Z,14.65
2022-09-12T05:48:45.102Z,12.13
2022-09-12T05:51:20.325Z,10.10
2022-09-12T05:53:53.048Z,13.55
2022-09-12T05:56:23.798Z,12.13
2022-09-12T05:58:59.179Z,13.27
2022-09-12T06:01:27.363Z,14.18
2022-09-12T06:03:56.023Z,13.18
2022-09-12T06:06:25.048Z,13.40
2022-09-12T06:08:54.725Z,11.98
2022-09-12T06:11:24.000Z,18.73
2022-09-12T06:13:51.153Z,10.98
2022-09-12T06:16:20.346Z,15.20
2022-09-12T06:18:53.889Z,13.48
2022-09-12T06:21:21.801Z,11.75
2022-09-12T06:23:49.383Z,9.85
2022-09-12T06:26:18.009Z,12.75
2022-09-12T06:28:45.409Z,11.45
2022-09-12T06:31:20.597Z,12.75
2022-09-12T06:33:50.265Z,9.32
2022-09-12T06:36:21.427Z,9.55
2022-09-12T06:38:51.313Z,12.07
2022-09-12T06:43:44.456Z,11.82
2022-09-12T06:46:12.338Z,12.55
2022-09-12T06:48:41.934Z,10.05
2022-09-12T06:51:16.460Z,10.98
2022-09-12T06:53:44.545Z,10.57
2022-09-12T06:56:19.612Z,9.75
2022-09-12T06:58:48.033Z,9.50
2022-09-12T07:01:17.895Z,10.18
2022-09-12T07:06:17.680Z,9.13
2022-09-12T07:08:44.769Z,11.07
2022-09-12T07:11:20.211Z,11.13
2022-09-12T07:13:52.189Z,10.60
2022-09-12T07:16:20.087Z,9.38
2022-09-12T07:18:59.079Z,8.18
2022-09-12T07:21:26.017Z,9.23
2022-09-12T07:23:55.296Z,11.05
2022-09-12T07:26:22.120Z,9.75
2022-09-12T07:29:03.929Z,10.65
2022-09-12T07:31:42.864Z,10.07
2022-09-12T07:34:09.868Z,9.20
2022-09-12T07:36:37.292Z,9.70
2022-09-12T07:39:04.136Z,11.45
2022-09-12T07:41:33.955Z,8.77
2022-09-12T07:46:30.007Z,9.07
2022-09-12T07:48:58.297Z,8.50
2022-09-12T07:51:27.810Z,7.72
2022-09-12T07:53:54.967Z,8.73
2022-09-12T07:56:23.283Z,7.60
2022-09-12T07:58:53.056Z,10.68
2022-09-12T08:01:23.339Z,7.35
2022-09-12T08:03:54.684Z,8.15
2022-09-12T08:06:24.203Z,8.68
2022-09-12T08:08:52.819Z,8.10
2022-09-12T08:11:21.130Z,8.35
2022-09-12T08:13:52.935Z,10.80
2022-09-12T08:16:22.547Z,10.68
2022-09-12T08:18:49.765Z,8.88
2022-09-12T08:21:18.117Z,11.25
2022-09-12T08:23:45.286Z,9.68
2022-09-12T08:26:12.809Z,8.40
2022-09-12T08:28:43.443Z,11.55
2022-09-12T08:31:16.085Z,7.85
2022-09-12T08:33:43.455Z,8.55
2022-09-12T08:36:15.025Z,7.15
2022-09-12T08:38:44.307Z,7.68
2022-09-12T08:41:30.538Z,7.15
2022-09-12T08:44:24.817Z,9.05
2022-09-12T08:47:13.516Z,6.97
2022-09-12T08:49:47.407Z,7.18
2022-09-12T08:52:52.795Z,9.93
2022-09-12T08:55:31.577Z,6.93
2022-09-12T08:58:05.833Z,9.20
2022-09-12T09:00:42.351Z,8.68
2022-09-12T09:03:30.137Z,14.95
2022-09-12T09:06:02.866Z,7.28
2022-09-12T09:09:06.807Z,8.27
2022-09-12T09:11:42.609Z,9.27
2022-09-12T09:14:50.225Z,5.95
2022-09-12T09:17:41.617Z,6.57
2022-09-12T09:20:17.577Z,5.70
2022-09-12T09:22:53.533Z,7.03
2022-09-12T09:25:48.968Z,6.55
2022-09-12T09:28:26.678Z,10.65
2022-09-12T09:30:53.905Z,5.97
2022-09-12T09:33:23.484Z,5.45
2022-09-12T09:36:05.753Z,6.18
2022-09-12T09:38:51.545Z,6.28
2022-09-12T09:41:18.766Z,6.70
2022-09-12T09:43:45.506Z,8.30
2022-09-12T09:46:14.192Z,5.55
2022-09-12T09:48:45.351Z,5.63
2022-09-12T09:51:13.821Z,7.90
2022-09-12T09:53:53.148Z,4.45
2022-09-12T09:59:33.752Z,5.03
2022-09-12T10:02:24.218Z,6.32
2022-09-12T10:04:57.215Z,5.50
2022-09-12T10:07:26.708Z,7.97
2022-09-12T10:10:13.180Z,5.38
2022-09-12T10:12:39.956Z,9.05
2022-09-12T10:15:39.113Z,7.53
2022-09-12T10:18:13.323Z,6.38
2022-09-12T10:20:44.304Z,6.75
2022-09-12T10:23:29.649Z,4.43
2022-09-12T10:26:01.858Z,7.60
2022-09-12T10:28:37.435Z,5.20
2022-09-12T10:31:05.842Z,6.72
2022-09-12T10:33:41.872Z,9.35
2022-09-12T10:36:09.139Z,16.27
2022-09-12T10:38:36.458Z,7.50
2022-09-12T10:41:13.137Z,5.28
2022-09-12T10:43:46.303Z,6.35
2022-09-12T10:46:19.054Z,6.43
2022-09-12T10:48:47.875Z,4.70
2022-09-12T10:51:29.848Z,10.53
2022-09-12T10:54:09.528Z,6.53
2022-09-12T10:56:38.999Z,5.10
2022-09-12T10:59:50.976Z,7.43
2022-09-12T11:02:43.620Z,5.63
2022-09-12T11:05:42.834Z,6.85
2022-09-12T11:08:32.968Z,16.90
2022-09-12T11:11:45.624Z,7.28
2022-09-12T11:14:35.801Z,6.85
2022-09-12T11:17:14.979Z,6.47
2022-09-12T11:20:09.115Z,5.53
2022-09-12T11:23:00.103Z,6.07
2022-09-12T11:25:38.848Z,5.07
2022-09-12T11:28:34.444Z,5.87
2022-09-12T11:31:12.911Z,4.95
2022-09-12T11:33:44.508Z,5.88
2022-09-12T11:36:36.989Z,6.22
2022-09-12T11:39:14.603Z,5.65
2022-09-12T11:41:57.506Z,4.18
2022-09-12T11:44:40.256Z,4.85
2022-09-12T11:47:14.570Z,6.60
2022-09-12T11:49:49.904Z,7.65
2022-09-12T11:52:20.663Z,5.10
2022-09-12T11:55:03.791Z,6.35
2022-09-12T11:57:52.914Z,6.45
2022-09-12T12:00:20.725Z,4.63
2022-09-12T12:02:59.016Z,5.65
2022-09-12T12:05:31.731Z,7.88
2022-09-12T12:08:01.925Z,5.93
2022-09-12T12:10:48.718Z,5.57
2022-09-12T12:13:15.805Z,5.90
2022-09-12T12:15:53.222Z,4.32
2022-09-12T12:18:25.912Z,6.28
2022-09-12T12:20:54.487Z,5.55
2022-09-12T12:23:34.111Z,4.45
2022-09-12T12:26:02.517Z,5.35
2022-09-12T12:28:41.336Z,5.93
2022-09-12T12:31:09.988Z,8.68
2022-09-12T12:33:39.602Z,10.17
2022-09-12T12:38:43.049Z,4.03
2022-09-12T12:41:18.936Z,5.55
2022-09-12T12:43:51.105Z,3.90
2022-09-12T12:46:20.551Z,4.10
2022-09-12T12:51:56.596Z,8.52
2022-09-12T12:54:50.928Z,4.50
2022-09-12T12:57:19.746Z,6.00
2022-09-12T12:59:54.539Z,4.45
2022-09-12T13:02:31.155Z,4.47
2022-09-12T13:05:00.011Z,6.65
2022-09-12T13:07:37.960Z,5.35
2022-09-12T13:10:07.242Z,4.07
2022-09-12T13:12:46.432Z,4.18
2022-09-12T13:15:38.083Z,7.63
2022-09-12T13:18:12.321Z,8.05
2022-09-12T13:20:49.983Z,8.43
2022-09-12T13:23:25.784Z,4.07
2022-09-12T13:25:55.731Z,5.00
2022-09-12T13:28:22.620Z,5.30
2022-09-12T13:30:59.710Z,4.93
2022-09-12T13:33:33.817Z,3.90
2022-09-12T13:36:03.435Z,3.75
2022-09-12T13:41:26.780Z,4.93
2022-09-12T13:43:53.585Z,8.07
2022-09-12T13:46:34.683Z,4.47
2022-09-12T13:49:11.662Z,4.50
2022-09-12T13:51:38.409Z,6.40
2022-09-12T13:54:06.020Z,5.63
2022-09-12T13:56:32.732Z,4.45
2022-09-12T13:59:02.495Z,4.50
2022-09-12T14:01:44.296Z,3.92
2022-09-12T14:04:37.040Z,5.25
2022-09-12T14:07:22.178Z,4.15
2022-09-12T14:09:57.304Z,4.50
2022-09-12T14:12:30.265Z,5.57
2022-09-12T14:14:57.500Z,4.53
2022-09-12T14:17:31.867Z,6.15
2022-09-12T14:20:05.401Z,14.35
2022-09-12T14:22:34.218Z,5.03
2022-09-12T14:25:02.022Z,4.55
2022-09-12T14:27:43.160Z,4.53
2022-09-12T14:30:31.986Z,5.65
2022-09-12T14:33:25.109Z,6.97
2022-09-12T14:36:12.095Z,12.88
2022-09-12T14:38:44.895Z,6.45
2022-09-12T14:41:20.873Z,4.00
2022-09-12T14:43:53.089Z,7.50
2022-09-12T14:46:41.497Z,9.40
2022-09-12T14:49:20.576Z,4.57
2022-09-12T14:51:57.113Z,9.13
2022-09-12T14:54:33.809Z,6.10
2022-09-12T14:57:06.202Z,10.82
2022-09-12T14:59:36.114Z,7.45
2022-09-12T15:02:21.251Z,7.28
2022-09-12T15:04:50.731Z,6.88
2022-09-12T15:07:38.528Z,8.68
2022-09-12T15:10:29.169Z,8.20
2022-09-12T15:13:16.711Z,5.97
2022-09-12T15:15:51.620Z,6.18
2022-09-12T15:18:19.727Z,6.78
2022-09-12T15:20:48.801Z,6.68
2022-09-12T15:23:31.165Z,5.80
2022-09-12T15:25:58.027Z,4.55
2022-09-12T15:28:26.826Z,6.68
2022-09-12T15:30:56.184Z,8.77
2022-09-12T15:33:25.117Z,6.57
2022-09-12T15:35:52.904Z,5.82
2022-09-12T15:38:23.141Z,7.70
2022-09-12T15:40:54.050Z,7.13
2022-09-12T15:43:22.573Z,4.43
2022-09-12T15:45:51.694Z,6.97
2022-09-12T15:48:19.350Z,5.85
2022-09-12T15:50:46.076Z,7.22
2022-09-12T15:53:16.173Z,6.13
2022-09-12T15:55:42.957Z,6.97
2022-09-12T15:58:09.865Z,7.60
2022-09-12T16:00:36.652Z,8.88
2022-09-12T16:03:03.900Z,7.18
2022-09-12T16:05:31.843Z,5.72
2022-09-12T16:07:58.505Z,7.65
2022-09-12T16:10:28.928Z,7.13
2022-09-12T16:12:55.684Z,6.25
2022-09-12T16:15:24.736Z,6.50
2022-09-12T16:17:51.869Z,5.28
2022-09-12T16:20:19.360Z,6.68
2022-09-12T16:22:46.061Z,5.78
2022-09-12T16:25:12.741Z,4.45
2022-09-12T16:27:39.876Z,8.88
2022-09-12T16:30:07.843Z,6.55
2022-09-12T16:32:34.522Z,8.93
2022-09-12T16:35:02.009Z,5.28
2022-09-12T16:37:28.967Z,7.32
2022-09-12T16:39:55.718Z,5.10
2022-09-12T16:42:23.066Z,7.85
2022-09-12T16:44:49.803Z,10.00
2022-09-12T16:47:16.576Z,9.88
2022-09-12T16:49:43.397Z,6.13
2022-09-12T16:52:10.926Z,6.28
2022-09-12T16:54:37.534Z,7.45
2022-09-12T16:57:05.375Z,7.35
2022-09-12T16:59:32.689Z,8.70
2022-09-12T17:01:59.333Z,9.48
2022-09-12T17:04:26.034Z,9.63
2022-09-12T17:06:52.715Z,6.72
2022-09-12T17:09:19.556Z,8.60
2022-09-12T17:11:50.367Z,5.30
2022-09-12T17:14:17.330Z,13.30
2022-09-12T17:16:51.442Z,5.55
2022-09-12T17:19:22.209Z,8.75
2022-09-12T17:21:50.098Z,7.18
2022-09-12T17:24:18.012Z,7.45
2022-09-12T17:26:45.767Z,6.72
2022-09-12T17:29:16.021Z,6.57
2022-09-12T17:31:43.879Z,4.97
2022-09-12T17:34:14.449Z,5.63
2022-09-12T17:36:44.475Z,8.05
2022-09-12T17:39:12.566Z,9.82
2022-09-12T17:41:41.358Z,7.80
2022-09-12T17:44:14.916Z,11.33
2022-09-12T17:46:42.367Z,5.15
2022-09-12T17:49:12.716Z,9.25
2022-09-12T17:51:40.348Z,8.98
2022-09-12T17:54:18.374Z,12.52
2022-09-12T17:56:51.902Z,9.07
2022-09-12T17:59:21.705Z,11.85
2022-09-12T18:04:33.685Z,11.02
2022-09-12T18:07:00.573Z,8.23
2022-09-12T18:09:28.941Z,5.97
2022-09-12T18:11:55.586Z,9.00
2022-09-12T18:14:23.137Z,9.68
2022-09-12T18:16:49.887Z,4.82
2022-09-12T18:19:16.983Z,9.93
2022-09-12T18:21:44.217Z,5.47
2022-09-12T18:24:11.588Z,7.93
2022-09-12T18:26:39.141Z,7.60
2022-09-12T18:29:06.309Z,7.55
2022-09-12T18:31:33.018Z,7.30
2022-09-12T18:34:02.806Z,7.13
2022-09-12T18:38:59.908Z,9.48
2022-09-12T18:43:57.757Z,7.65
2022-09-12T18:46:25.222Z,8.02
2022-09-12T18:48:52.050Z,7.05
2022-09-12T18:51:21.249Z,10.43
2022-09-12T18:53:56.355Z,9.27
2022-09-12T18:56:28.779Z,9.25
2022-09-12T18:58:56.987Z,11.23
2022-09-12T19:01:29.611Z,8.55
2022-09-12T19:03:57.075Z,7.35
2022-09-12T19:06:32.115Z,8.00
2022-09-12T19:09:02.727Z,8.63
2022-09-12T19:11:31.909Z,8.15
2022-09-12T19:13:58.547Z,9.45
2022-09-12T19:16:27.653Z,8.10
2022-09-12T19:18:58.613Z,6.53
2022-09-12T19:21:27.516Z,8.23
2022-09-12T19:23:58.034Z,9.30
2022-09-12T19:26:25.190Z,8.25
2022-09-12T19:28:52.245Z,7.68
2022-09-12T19:31:20.237Z,8.23
2022-09-12T19:33:47.214Z,11.35
2022-09-12T19:36:34.033Z,9.52
2022-09-12T19:39:04.751Z,10.47
2022-09-12T19:41:31.576Z,11.13
2022-09-12T19:43:58.955Z,11.98
2022-09-12T19:46:26.607Z,10.57
2022-09-12T19:48:54.792Z,7.72
2022-09-12T19:51:22.301Z,7.57
2022-09-12T19:53:50.294Z,5.68
2022-09-12T19:56:17.704Z,7.80
2022-09-12T19:58:46.777Z,6.05
2022-09-12T20:01:29.990Z,8.82
2022-09-12T20:03:57.879Z,8.07
2022-09-12T20:06:31.250Z,10.32
2022-09-12T20:08:58.069Z,11.80
2022-09-12T20:11:25.822Z,9.40
2022-09-12T20:13:52.930Z,10.80
2022-09-12T20:16:22.869Z,8.65
2022-09-12T20:18:57.943Z,8.88
2022-09-12T20:21:31.764Z,6.53
2022-09-12T20:24:05.297Z,6.78
2022-09-12T20:26:37.253Z,6.10
2022-09-12T20:29:05.533Z,7.40
2022-09-12T20:31:36.660Z,9.63
2022-09-12T20:34:12.020Z,7.93
2022-09-12T20:36:43.918Z,11.27
2022-09-12T20:39:26.857Z,11.50
2022-09-12T20:41:53.899Z,7.40
2022-09-12T20:44:21.034Z,8.60
2022-09-12T20:46:48.983Z,7.10
2022-09-12T20:49:15.643Z,6.22
2022-09-12T20:51:42.303Z,7.82
2022-09-12T20:54:10.197Z,7.20
2022-09-12T20:56:37.657Z,8.40
2022-09-12T20:59:05.178Z,7.70
2022-09-12T21:01:32.259Z,14.00
2022-09-12T21:04:01.669Z,11.27
2022-09-12T21:06:28.523Z,6.03
2022-09-12T21:09:00.486Z,9.20
2022-09-12T21:11:29.413Z,6.68
2022-09-12T21:13:56.312Z,12.07
2022-09-12T21:16:23.669Z,7.30
2022-09-12T21:18:56.969Z,6.13
2022-09-12T21:21:27.273Z,8.32
2022-09-12T21:24:02.585Z,8.68
2022-09-12T21:26:29.858Z,7.03
2022-09-12T21:28:57.512Z,5.90
2022-09-12T21:31:27.440Z,6.25
2022-09-12T21:33:54.235Z,7.18
2022-09-12T21:36:21.014Z,7.03
2022-09-12T21:38:48.619Z,6.25
2022-09-12T21:41:17.188Z,7.40
2022-09-12T21:43:45.953Z,8.70
2022-09-12T21:46:13.831Z,7.65
2022-09-12T21:48:42.981Z,7.05
2022-09-12T21:51:09.621Z,6.57
2022-09-12T21:53:37.718Z,8.18
2022-09-12T21:56:07.277Z,8.50
2022-09-12T21:58:38.377Z,8.77
2022-09-12T22:01:08.618Z,6.93
2022-09-12T22:06:06.660Z,6.95
2022-09-12T22:11:25.340Z,11.18
2022-09-12T22:13:51.932Z,8.82
2022-09-12T22:16:18.606Z,10.52
2022-09-12T22:18:50.584Z,10.55
2022-09-12T22:21:19.936Z,12.25
2022-09-12T22:24:05.027Z,9.07
2022-09-12T22:26:35.055Z,9.63
2022-09-12T22:29:02.060Z,14.52
2022-09-12T22:31:28.793Z,38.83
2022-09-12T22:33:59.389Z,47.80
2022-09-12T22:36:30.500Z,60.85
2022-09-12T22:38:58.479Z,59.63
2022-09-12T22:41:25.271Z,52.13
2022-09-12T22:43:51.910Z,56.33
2022-09-12T22:46:18.575Z,74.72
2022-09-12T22:48:45.606Z,65.43
2022-09-12T22:51:12.332Z,75.68
2022-09-12T22:53:39.077Z,79.97
2022-09-12T22:56:06.570Z,94.50
2022-09-12T22:58:35.602Z,50.20
2022-09-12T23:01:03.534Z,39.93
2022-09-12T23:03:30.588Z,22.02
2022-09-12T23:05:57.188Z,21.60
2022-09-12T23:08:23.895Z,16.38
2022-09-12T23:10:50.782Z,15.85
2022-09-12T23:13:17.736Z,17.65
2022-09-12T23:15:45.446Z,14.32
2022-09-12T23:18:12.052Z,13.35
2022-09-12T23:20:38.665Z,11.40
2022-09-12T23:23:05.300Z,10.20
2022-09-12T23:25:31.995Z,11.95
2022-09-12T23:27:58.653Z,13.68
2022-09-12T23:30:25.259Z,9.70
2022-09-12T23:32:51.915Z,8.77
2022-09-12T23:35:19.699Z,7.93
2022-09-12T23:37:47.166Z,10.07
2022-09-12T23:40:16.234Z,8.25
2022-09-12T23:42:42.897Z,12.50
2022-09-12T23:45:10.362Z,13.30
2022-09-12T23:47:37.001Z,8.18
2022-09-12T23:50:04.149Z,8.57
2022-09-12T23:52:30.909Z,8.18
2022-09-12T23:54:57.533Z,9.13
2022-09-12T23:57:24.140Z,13.30
2022-09-12T23:59:50.735Z,9.27
